sensor_id;sensor_type;location;lat;lon;timestamp;P1;durP1;ratioP1;P2;durP2;ratioP2
11173;SDS011;5643;50.856;12.088;2023-02-15T00:01:29;7.97;;;6.80;;
11173;SDS011;5643;50.856;12.088;2023-02-15T00:04:01;7.17;;;6.50;;
11173;SDS011;5643;50.856;12.088;2023-02-15T00:06:30;8.00;;;7.20;;
11173;SDS011;5643;50.856;12.088;2023-02-15T00:08:59;7.57;;;6.80;;
11173;SDS011;5643;50.856;12.088;2023-02-15T00:11:29;7.47;;;6.70;;
11173;SDS011;5643;50.856;12.088;2023-02-15T00:14:13;6.87;;;6.17;;
11173;SDS011;5643;50.856;12.088;2023-02-15T00:16:42;7.30;;;6.60;;
11173;SDS011;5643;50.856;12.088;2023-02-15T00:19:14;7.43;;;6.60;;
11173;SDS011;5643;50.856;12.088;2023-02-15T00:21:43;7.70;;;6.90;;
11173;SDS011;5643;50.856;12.088;2023-02-15T00:24:13;7.60;;;6.80;;
11173;SDS011;5643;50.856;12.088;2023-02-15T00:26:41;7.03;;;6.23;;
11173;SDS011;5643;50.856;12.088;2023-02-15T00:29:14;7.20;;;6.43;;
11173;SDS011;5643;50.856;12.088;2023-02-15T00:31:43;7.13;;;6.43;;
11173;SDS011;5643;50.856;12.088;2023-02-15T00:34:11;7.67;;;6.90;;
11173;SDS011;5643;50.856;12.088;2023-02-15T00:36:40;7.00;;;6.30;;
11173;SDS011;5643;50.856;12.088;2023-02-15T00:39:08;7.17;;;6.47;;
11173;SDS011;5643;50.856;12.088;2023-02-15T00:41:37;7.27;;;6.57;;
11173;SDS011;5643;50.856;12.088;2023-02-15T00:44:04;7.00;;;6.30;;
11173;SDS011;5643;50.856;12.088;2023-02-15T00:46:32;7.00;;;6.23;;
11173;SDS011;5643;50.856;12.088;2023-02-15T00:48:59;7.57;;;6.83;;
11173;SDS011;5643;50.856;12.088;2023-02-15T00:51:26;7.60;;;6.83;;
11173;SDS011;5643;50.856;12.088;2023-02-15T00:53:54;6.80;;;6.13;;
11173;SDS011;5643;50.856;12.088;2023-02-15T00:56:22;7.73;;;7.00;;
11173;SDS011;5643;50.856;12.088;2023-02-15T00:58:52;7.53;;;6.83;;
11173;SDS011;5643;50.856;12.088;2023-02-15T01:01:20;7.93;;;7.13;;
11173;SDS011;5643;50.856;12.088;2023-02-15T01:03:47;7.73;;;6.93;;
11173;SDS011;5643;50.856;12.088;2023-02-15T01:06:15;7.70;;;6.40;;
11173;SDS011;5643;50.856;12.088;2023-02-15T01:08:42;7.77;;;7.07;;
11173;SDS011;5643;50.856;12.088;2023-02-15T01:11:10;8.07;;;7.13;;
11173;SDS011;5643;50.856;12.088;2023-02-15T01:13:38;7.77;;;6.97;;
11173;SDS011;5643;50.856;12.088;2023-02-15T01:16:07;8.03;;;7.23;;
11173;SDS011;5643;50.856;12.088;2023-02-15T01:18:34;8.30;;;7.50;;
11173;SDS011;5643;50.856;12.088;2023-02-15T01:21:08;7.67;;;6.90;;
11173;SDS011;5643;50.856;12.088;2023-02-15T01:23:35;7.83;;;7.03;;
11173;SDS011;5643;50.856;12.088;2023-02-15T01:26:03;7.27;;;6.57;;
11173;SDS011;5643;50.856;12.088;2023-02-15T01:28:30;7.83;;;7.03;;
11173;SDS011;5643;50.856;12.088;2023-02-15T01:30:58;7.33;;;6.60;;
11173;SDS011;5643;50.856;12.088;2023-02-15T01:33:27;7.50;;;6.70;;
11173;SDS011;5643;50.856;12.088;2023-02-15T01:35:56;7.43;;;6.73;;
11173;SDS011;5643;50.856;12.088;2023-02-15T01:38:25;6.97;;;6.27;;
11173;SDS011;5643;50.856;12.088;2023-02-15T01:40:53;7.40;;;6.70;;
11173;SDS011;5643;50.856;12.088;2023-02-15T01:43:41;6.90;;;6.20;;
11173;SDS011;5643;50.856;12.088;2023-02-15T01:46:08;7.50;;;6.80;;
11173;SDS011;5643;50.856;12.088;2023-02-15T01:48:38;7.13;;;6.43;;
11173;SDS011;5643;50.856;12.088;2023-02-15T01:51:06;7.40;;;6.60;;
11173;SDS011;5643;50.856;12.088;2023-02-15T01:53:34;6.77;;;6.07;;
11173;SDS011;5643;50.856;12.088;2023-02-15T01:56:05;6.67;;;6.07;;
11173;SDS011;5643;50.856;12.088;2023-02-15T01:58:33;7.30;;;6.57;;
11173;SDS011;5643;50.856;12.088;2023-02-15T02:01:01;7.27;;;6.57;;
11173;SDS011;5643;50.856;12.088;2023-02-15T02:03:34;7.07;;;6.30;;
11173;SDS011;5643;50.856;12.088;2023-02-15T02:06:04;7.83;;;6.70;;
11173;SDS011;5643;50.856;12.088;2023-02-15T02:08:32;7.40;;;6.60;;
11173;SDS011;5643;50.856;12.088;2023-02-15T02:11:00;7.50;;;6.77;;
11173;SDS011;5643;50.856;12.088;2023-02-15T02:13:27;7.50;;;6.80;;
11173;SDS011;5643;50.856;12.088;2023-02-15T02:15:56;6.70;;;6.07;;
11173;SDS011;5643;50.856;12.088;2023-02-15T02:18:29;6.93;;;6.23;;
11173;SDS011;5643;50.856;12.088;2023-02-15T02:21:11;7.07;;;6.33;;
11173;SDS011;5643;50.856;12.088;2023-02-15T02:23:57;8.27;;;6.40;;
11173;SDS011;5643;50.856;12.088;2023-02-15T02:32:28;7.37;;;6.67;;
11173;SDS011;5643;50.856;12.088;2023-02-15T02:35:06;7.67;;;6.77;;
11173;SDS011;5643;50.856;12.088;2023-02-15T02:37:36;7.90;;;7.10;;
11173;SDS011;5643;50.856;12.088;2023-02-15T02:40:09;7.83;;;6.80;;
11173;SDS011;5643;50.856;12.088;2023-02-15T02:42:39;7.97;;;7.13;;
11173;SDS011;5643;50.856;12.088;2023-02-15T02:45:07;8.47;;;7.33;;
11173;SDS011;5643;50.856;12.088;2023-02-15T02:47:36;7.77;;;6.93;;
11173;SDS011;5643;50.856;12.088;2023-02-15T02:50:07;8.40;;;7.60;;
11173;SDS011;5643;50.856;12.088;2023-02-15T02:52:40;7.57;;;6.80;;
11173;SDS011;5643;50.856;12.088;2023-02-15T02:55:10;8.70;;;7.13;;
11173;SDS011;5643;50.856;12.088;2023-02-15T02:57:40;7.27;;;6.57;;
11173;SDS011;5643;50.856;12.088;2023-02-15T03:00:09;7.90;;;7.10;;
11173;SDS011;5643;50.856;12.088;2023-02-15T03:02:39;8.03;;;7.23;;
11173;SDS011;5643;50.856;12.088;2023-02-15T03:05:11;7.03;;;6.33;;
11173;SDS011;5643;50.856;12.088;2023-02-15T03:07:41;8.13;;;7.13;;
11173;SDS011;5643;50.856;12.088;2023-02-15T03:10:10;7.50;;;6.70;;
11173;SDS011;5643;50.856;12.088;2023-02-15T03:12:39;7.63;;;6.43;;
11173;SDS011;5643;50.856;12.088;2023-02-15T03:15:08;7.63;;;6.83;;
11173;SDS011;5643;50.856;12.088;2023-02-15T03:17:37;7.37;;;6.50;;
11173;SDS011;5643;50.856;12.088;2023-02-15T03:20:06;7.53;;;6.73;;
11173;SDS011;5643;50.856;12.088;2023-02-15T03:22:37;8.37;;;6.73;;
11173;SDS011;5643;50.856;12.088;2023-02-15T03:25:06;6.90;;;6.20;;
11173;SDS011;5643;50.856;12.088;2023-02-15T03:27:37;6.87;;;5.83;;
11173;SDS011;5643;50.856;12.088;2023-02-15T03:30:07;7.80;;;7.00;;
11173;SDS011;5643;50.856;12.088;2023-02-15T03:32:34;7.13;;;6.43;;
11173;SDS011;5643;50.856;12.088;2023-02-15T03:35:03;7.73;;;6.63;;
11173;SDS011;5643;50.856;12.088;2023-02-15T03:37:32;7.53;;;6.37;;
11173;SDS011;5643;50.856;12.088;2023-02-15T03:40:03;7.30;;;6.60;;
11173;SDS011;5643;50.856;12.088;2023-02-15T03:42:48;6.37;;;5.77;;
11173;SDS011;5643;50.856;12.088;2023-02-15T03:45:18;7.17;;;6.47;;
11173;SDS011;5643;50.856;12.088;2023-02-15T03:47:49;7.37;;;6.67;;
11173;SDS011;5643;50.856;12.088;2023-02-15T03:50:18;6.20;;;5.60;;
11173;SDS011;5643;50.856;12.088;2023-02-15T03:53:08;6.20;;;5.60;;
11173;SDS011;5643;50.856;12.088;2023-02-15T03:55:38;6.93;;;5.97;;
11173;SDS011;5643;50.856;12.088;2023-02-15T03:58:05;6.20;;;5.60;;
11173;SDS011;5643;50.856;12.088;2023-02-15T04:00:51;6.17;;;5.57;;
11173;SDS011;5643;50.856;12.088;2023-02-15T04:03:39;5.80;;;5.23;;
11173;SDS011;5643;50.856;12.088;2023-02-15T04:06:07;6.57;;;5.87;;
11173;SDS011;5643;50.856;12.088;2023-02-15T04:08:35;6.27;;;5.67;;
11173;SDS011;5643;50.856;12.088;2023-02-15T04:11:21;6.80;;;5.90;;
11173;SDS011;5643;50.856;12.088;2023-02-15T04:13:48;6.13;;;5.53;;
11173;SDS011;5643;50.856;12.088;2023-02-15T04:16:22;6.10;;;5.50;;
11173;SDS011;5643;50.856;12.088;2023-02-15T04:18:50;5.97;;;5.37;;
11173;SDS011;5643;50.856;12.088;2023-02-15T04:21:34;5.50;;;5.00;;
11173;SDS011;5643;50.856;12.088;2023-02-15T04:24:19;5.80;;;5.17;;
11173;SDS011;5643;50.856;12.088;2023-02-15T04:27:05;5.33;;;4.83;;
11173;SDS011;5643;50.856;12.088;2023-02-15T04:29:33;5.83;;;5.23;;
11173;SDS011;5643;50.856;12.088;2023-02-15T04:32:01;5.87;;;5.27;;
11173;SDS011;5643;50.856;12.088;2023-02-15T04:34:29;5.40;;;4.90;;
11173;SDS011;5643;50.856;12.088;2023-02-15T04:36:57;5.33;;;4.70;;
11173;SDS011;5643;50.856;12.088;2023-02-15T04:39:24;5.23;;;4.73;;
11173;SDS011;5643;50.856;12.088;2023-02-15T04:41:51;5.50;;;5.00;;
11173;SDS011;5643;50.856;12.088;2023-02-15T04:44:20;5.57;;;5.07;;
11173;SDS011;5643;50.856;12.088;2023-02-15T04:46:47;5.20;;;4.70;;
11173;SDS011;5643;50.856;12.088;2023-02-15T04:49:15;5.23;;;4.73;;
11173;SDS011;5643;50.856;12.088;2023-02-15T04:51:43;5.17;;;4.67;;
11173;SDS011;5643;50.856;12.088;2023-02-15T04:54:10;5.20;;;4.70;;
11173;SDS011;5643;50.856;12.088;2023-02-15T04:56:39;4.50;;;4.10;;
11173;SDS011;5643;50.856;12.088;2023-02-15T04:59:06;4.80;;;4.40;;
11173;SDS011;5643;50.856;12.088;2023-02-15T05:01:35;4.70;;;4.30;;
11173;SDS011;5643;50.856;12.088;2023-02-15T05:04:03;4.93;;;4.47;;
11173;SDS011;5643;50.856;12.088;2023-02-15T05:06:30;4.23;;;3.87;;
11173;SDS011;5643;50.856;12.088;2023-02-15T05:08:57;5.00;;;4.50;;
11173;SDS011;5643;50.856;12.088;2023-02-15T05:11:25;4.80;;;4.27;;
11173;SDS011;5643;50.856;12.088;2023-02-15T05:13:53;4.63;;;4.23;;
11173;SDS011;5643;50.856;12.088;2023-02-15T05:16:21;4.50;;;4.10;;
11173;SDS011;5643;50.856;12.088;2023-02-15T05:18:50;4.50;;;4.10;;
11173;SDS011;5643;50.856;12.088;2023-02-15T05:21:17;4.17;;;3.77;;
11173;SDS011;5643;50.856;12.088;2023-02-15T05:23:44;4.40;;;4.00;;
11173;SDS011;5643;50.856;12.088;2023-02-15T05:26:13;4.63;;;4.23;;
11173;SDS011;5643;50.856;12.088;2023-02-15T05:29:00;4.13;;;3.73;;
11173;SDS011;5643;50.856;12.088;2023-02-15T05:31:30;4.40;;;4.00;;
11173;SDS011;5643;50.856;12.088;2023-02-15T05:34:00;4.53;;;4.10;;
11173;SDS011;5643;50.856;12.088;2023-02-15T05:36:27;4.50;;;3.90;;
11173;SDS011;5643;50.856;12.088;2023-02-15T05:38:55;4.30;;;3.90;;
11173;SDS011;5643;50.856;12.088;2023-02-15T05:41:22;4.13;;;3.73;;
11173;SDS011;5643;50.856;12.088;2023-02-15T05:43:54;4.20;;;3.80;;
11173;SDS011;5643;50.856;12.088;2023-02-15T05:46:23;4.30;;;3.90;;
11173;SDS011;5643;50.856;12.088;2023-02-15T05:48:51;3.63;;;3.33;;
11173;SDS011;5643;50.856;12.088;2023-02-15T05:51:20;4.50;;;4.10;;
11173;SDS011;5643;50.856;12.088;2023-02-15T05:53:47;4.10;;;3.70;;
11173;SDS011;5643;50.856;12.088;2023-02-15T05:56:15;4.47;;;3.90;;
11173;SDS011;5643;50.856;12.088;2023-02-15T05:58:42;3.83;;;3.53;;
11173;SDS011;5643;50.856;12.088;2023-02-15T06:01:09;4.40;;;4.00;;
11173;SDS011;5643;50.856;12.088;2023-02-15T06:03:37;3.77;;;3.47;;
11173;SDS011;5643;50.856;12.088;2023-02-15T06:06:06;4.10;;;3.70;;
11173;SDS011;5643;50.856;12.088;2023-02-15T06:08:35;3.87;;;3.50;;
11173;SDS011;5643;50.856;12.088;2023-02-15T06:11:03;3.57;;;3.27;;
11173;SDS011;5643;50.856;12.088;2023-02-15T06:13:32;4.10;;;3.70;;
11173;SDS011;5643;50.856;12.088;2023-02-15T06:16:00;3.50;;;3.20;;
11173;SDS011;5643;50.856;12.088;2023-02-15T06:18:28;3.90;;;3.50;;
11173;SDS011;5643;50.856;12.088;2023-02-15T06:20:56;3.70;;;3.40;;
11173;SDS011;5643;50.856;12.088;2023-02-15T06:23:24;4.23;;;3.83;;
11173;SDS011;5643;50.856;12.088;2023-02-15T06:25:53;4.20;;;3.80;;
11173;SDS011;5643;50.856;12.088;2023-02-15T06:28:21;4.03;;;3.63;;
11173;SDS011;5643;50.856;12.088;2023-02-15T06:30:48;4.10;;;3.70;;
11173;SDS011;5643;50.856;12.088;2023-02-15T06:33:16;3.87;;;3.53;;
11173;SDS011;5643;50.856;12.088;2023-02-15T06:35:44;3.90;;;3.60;;
11173;SDS011;5643;50.856;12.088;2023-02-15T06:38:12;3.63;;;3.33;;
11173;SDS011;5643;50.856;12.088;2023-02-15T06:40:39;4.00;;;3.60;;
11173;SDS011;5643;50.856;12.088;2023-02-15T06:43:08;3.27;;;3.00;;
11173;SDS011;5643;50.856;12.088;2023-02-15T06:45:36;4.13;;;3.70;;
11173;SDS011;5643;50.856;12.088;2023-02-15T06:48:04;4.10;;;3.70;;
11173;SDS011;5643;50.856;12.088;2023-02-15T06:50:33;4.40;;;4.00;;
11173;SDS011;5643;50.856;12.088;2023-02-15T06:53:00;4.13;;;3.73;;
11173;SDS011;5643;50.856;12.088;2023-02-15T06:55:29;3.97;;;3.50;;
11173;SDS011;5643;50.856;12.088;2023-02-15T06:57:56;4.73;;;3.87;;
11173;SDS011;5643;50.856;12.088;2023-02-15T07:00:25;4.37;;;3.97;;
11173;SDS011;5643;50.856;12.088;2023-02-15T07:02:54;3.90;;;3.50;;
11173;SDS011;5643;50.856;12.088;2023-02-15T07:05:24;3.57;;;3.20;;
11173;SDS011;5643;50.856;12.088;2023-02-15T07:07:56;3.87;;;3.57;;
11173;SDS011;5643;50.856;12.088;2023-02-15T07:10:24;3.70;;;3.40;;
11173;SDS011;5643;50.856;12.088;2023-02-15T07:12:52;4.13;;;3.73;;
11173;SDS011;5643;50.856;12.088;2023-02-15T07:15:19;3.67;;;3.37;;
11173;SDS011;5643;50.856;12.088;2023-02-15T07:17:50;3.87;;;3.43;;
11173;SDS011;5643;50.856;12.088;2023-02-15T07:20:18;3.70;;;3.30;;
11173;SDS011;5643;50.856;12.088;2023-02-15T07:22:47;3.77;;;3.43;;
11173;SDS011;5643;50.856;12.088;2023-02-15T07:25:14;3.93;;;3.60;;
11173;SDS011;5643;50.856;12.088;2023-02-15T07:27:42;3.87;;;3.50;;
11173;SDS011;5643;50.856;12.088;2023-02-15T07:30:11;3.70;;;3.30;;
11173;SDS011;5643;50.856;12.088;2023-02-15T07:32:39;5.80;;;3.80;;
11173;SDS011;5643;50.856;12.088;2023-02-15T07:35:29;4.10;;;3.70;;
11173;SDS011;5643;50.856;12.088;2023-02-15T07:37:56;4.20;;;3.80;;
11173;SDS011;5643;50.856;12.088;2023-02-15T07:40:23;4.33;;;3.93;;
11173;SDS011;5643;50.856;12.088;2023-02-15T07:42:51;4.20;;;3.80;;
11173;SDS011;5643;50.856;12.088;2023-02-15T07:45:20;4.30;;;3.90;;
11173;SDS011;5643;50.856;12.088;2023-02-15T07:47:48;3.90;;;3.60;;
11173;SDS011;5643;50.856;12.088;2023-02-15T07:50:17;3.97;;;3.57;;
11173;SDS011;5643;50.856;12.088;2023-02-15T07:52:46;4.13;;;3.73;;
11173;SDS011;5643;50.856;12.088;2023-02-15T07:55:13;4.30;;;3.90;;
11173;SDS011;5643;50.856;12.088;2023-02-15T07:57:42;4.50;;;4.07;;
11173;SDS011;5643;50.856;12.088;2023-02-15T08:00:11;4.43;;;4.03;;
11173;SDS011;5643;50.856;12.088;2023-02-15T08:02:44;4.53;;;4.10;;
11173;SDS011;5643;50.856;12.088;2023-02-15T08:05:35;4.60;;;4.20;;
11173;SDS011;5643;50.856;12.088;2023-02-15T08:08:05;4.63;;;4.23;;
11173;SDS011;5643;50.856;12.088;2023-02-15T08:10:32;4.30;;;3.90;;
11173;SDS011;5643;50.856;12.088;2023-02-15T08:13:18;3.90;;;3.50;;
11173;SDS011;5643;50.856;12.088;2023-02-15T08:15:49;4.50;;;4.10;;
11173;SDS011;5643;50.856;12.088;2023-02-15T08:18:17;4.00;;;3.70;;
11173;SDS011;5643;50.856;12.088;2023-02-15T08:20:48;3.90;;;3.60;;
11173;SDS011;5643;50.856;12.088;2023-02-15T08:23:20;4.10;;;3.70;;
11173;SDS011;5643;50.856;12.088;2023-02-15T08:25:48;3.90;;;3.60;;
11173;SDS011;5643;50.856;12.088;2023-02-15T08:28:19;4.67;;;4.27;;
11173;SDS011;5643;50.856;12.088;2023-02-15T08:30:47;4.90;;;4.40;;
11173;SDS011;5643;50.856;12.088;2023-02-15T08:33:15;4.57;;;4.17;;
11173;SDS011;5643;50.856;12.088;2023-02-15T08:35:43;4.40;;;4.00;;
11173;SDS011;5643;50.856;12.088;2023-02-15T08:38:11;3.80;;;3.50;;
11173;SDS011;5643;50.856;12.088;2023-02-15T08:40:41;4.20;;;3.80;;
11173;SDS011;5643;50.856;12.088;2023-02-15T08:43:10;4.00;;;3.70;;
11173;SDS011;5643;50.856;12.088;2023-02-15T08:45:37;3.60;;;3.30;;
11173;SDS011;5643;50.856;12.088;2023-02-15T08:48:05;3.77;;;3.47;;
11173;SDS011;5643;50.856;12.088;2023-02-15T08:50:34;3.63;;;3.33;;
11173;SDS011;5643;50.856;12.088;2023-02-15T08:53:02;3.90;;;3.60;;
11173;SDS011;5643;50.856;12.088;2023-02-15T08:55:30;3.50;;;3.10;;
11173;SDS011;5643;50.856;12.088;2023-02-15T08:58:00;3.80;;;3.50;;
11173;SDS011;5643;50.856;12.088;2023-02-15T09:00:28;3.50;;;3.20;;
11173;SDS011;5643;50.856;12.088;2023-02-15T09:02:57;2.93;;;2.73;;
11173;SDS011;5643;50.856;12.088;2023-02-15T09:05:25;3.87;;;3.50;;
11173;SDS011;5643;50.856;12.088;2023-02-15T09:07:53;3.30;;;3.00;;
11173;SDS011;5643;50.856;12.088;2023-02-15T09:10:21;2.83;;;2.63;;
11173;SDS011;5643;50.856;12.088;2023-02-15T09:12:48;3.40;;;3.10;;
11173;SDS011;5643;50.856;12.088;2023-02-15T09:15:20;2.90;;;2.70;;
11173;SDS011;5643;50.856;12.088;2023-02-15T09:17:48;3.20;;;2.90;;
11173;SDS011;5643;50.856;12.088;2023-02-15T09:20:15;2.77;;;2.57;;
11173;SDS011;5643;50.856;12.088;2023-02-15T09:22:43;3.03;;;2.80;;
11173;SDS011;5643;50.856;12.088;2023-02-15T09:25:11;2.97;;;2.77;;
11173;SDS011;5643;50.856;12.088;2023-02-15T09:27:40;2.90;;;2.70;;
11173;SDS011;5643;50.856;12.088;2023-02-15T09:30:08;2.70;;;2.50;;
11173;SDS011;5643;50.856;12.088;2023-02-15T09:32:37;2.90;;;2.60;;
11173;SDS011;5643;50.856;12.088;2023-02-15T09:35:09;2.70;;;2.50;;
11173;SDS011;5643;50.856;12.088;2023-02-15T09:37:37;2.70;;;2.50;;
11173;SDS011;5643;50.856;12.088;2023-02-15T09:40:05;2.60;;;2.40;;
11173;SDS011;5643;50.856;12.088;2023-02-15T09:42:47;3.03;;;2.80;;
11173;SDS011;5643;50.856;12.088;2023-02-15T09:45:30;2.90;;;2.70;;
11173;SDS011;5643;50.856;12.088;2023-02-15T09:48:06;2.80;;;2.60;;
11173;SDS011;5643;50.856;12.088;2023-02-15T09:50:44;2.33;;;2.13;;
11173;SDS011;5643;50.856;12.088;2023-02-15T09:53:22;2.10;;;2.00;;
11173;SDS011;5643;50.856;12.088;2023-02-15T09:55:54;2.67;;;2.47;;
11173;SDS011;5643;50.856;12.088;2023-02-15T09:58:26;2.70;;;2.50;;
11173;SDS011;5643;50.856;12.088;2023-02-15T10:00:58;2.30;;;2.20;;
11173;SDS011;5643;50.856;12.088;2023-02-15T10:03:37;2.60;;;2.40;;
11173;SDS011;5643;50.856;12.088;2023-02-15T10:06:21;2.20;;;2.10;;
11173;SDS011;5643;50.856;12.088;2023-02-15T10:09:05;2.60;;;2.40;;
11173;SDS011;5643;50.856;12.088;2023-02-15T10:11:42;2.10;;;2.00;;
11173;SDS011;5643;50.856;12.088;2023-02-15T10:14:32;2.40;;;2.20;;
11173;SDS011;5643;50.856;12.088;2023-02-15T10:17:07;1.90;;;1.80;;
11173;SDS011;5643;50.856;12.088;2023-02-15T10:19:44;1.70;;;1.60;;
11173;SDS011;5643;50.856;12.088;2023-02-15T10:22:20;1.93;;;1.83;;
11173;SDS011;5643;50.856;12.088;2023-02-15T10:27:43;1.90;;;1.80;;
11173;SDS011;5643;50.856;12.088;2023-02-15T10:30:15;2.27;;;2.07;;
11173;SDS011;5643;50.856;12.088;2023-02-15T10:32:48;2.40;;;2.20;;
11173;SDS011;5643;50.856;12.088;2023-02-15T10:35:22;2.03;;;1.93;;
11173;SDS011;5643;50.856;12.088;2023-02-15T10:37:56;2.00;;;1.90;;
11173;SDS011;5643;50.856;12.088;2023-02-15T10:40:28;2.17;;;2.07;;
11173;SDS011;5643;50.856;12.088;2023-02-15T10:43:08;2.20;;;2.00;;
11173;SDS011;5643;50.856;12.088;2023-02-15T10:45:47;2.20;;;2.00;;
11173;SDS011;5643;50.856;12.088;2023-02-15T10:48:32;2.10;;;1.93;;
11173;SDS011;5643;50.856;12.088;2023-02-15T10:51:06;2.27;;;2.07;;
11173;SDS011;5643;50.856;12.088;2023-02-15T10:53:39;1.90;;;1.80;;
11173;SDS011;5643;50.856;12.088;2023-02-15T10:56:14;1.80;;;1.70;;
11173;SDS011;5643;50.856;12.088;2023-02-15T10:58:47;2.43;;;1.90;;
11173;SDS011;5643;50.856;12.088;2023-02-15T11:01:18;2.23;;;2.00;;
11173;SDS011;5643;50.856;12.088;2023-02-15T11:03:53;2.43;;;2.23;;
11173;SDS011;5643;50.856;12.088;2023-02-15T11:06:28;1.80;;;1.70;;
11173;SDS011;5643;50.856;12.088;2023-02-15T11:08:59;2.10;;;1.90;;
11173;SDS011;5643;50.856;12.088;2023-02-15T11:11:29;2.10;;;1.70;;
11173;SDS011;5643;50.856;12.088;2023-02-15T11:13:59;1.60;;;1.50;;
11173;SDS011;5643;50.856;12.088;2023-02-15T11:16:29;1.70;;;1.60;;
11173;SDS011;5643;50.856;12.088;2023-02-15T11:19:01;2.00;;;1.87;;
11173;SDS011;5643;50.856;12.088;2023-02-15T11:21:33;1.60;;;1.50;;
11173;SDS011;5643;50.856;12.088;2023-02-15T11:24:09;1.80;;;1.63;;
11173;SDS011;5643;50.856;12.088;2023-02-15T11:26:39;1.67;;;1.50;;
11173;SDS011;5643;50.856;12.088;2023-02-15T11:29:10;1.77;;;1.50;;
11173;SDS011;5643;50.856;12.088;2023-02-15T11:31:41;1.30;;;1.20;;
11173;SDS011;5643;50.856;12.088;2023-02-15T11:34:12;1.43;;;1.20;;
11173;SDS011;5643;50.856;12.088;2023-02-15T11:36:43;1.20;;;1.10;;
11173;SDS011;5643;50.856;12.088;2023-02-15T11:39:11;1.00;;;1.00;;
11173;SDS011;5643;50.856;12.088;2023-02-15T11:41:44;0.87;;;0.87;;
11173;SDS011;5643;50.856;12.088;2023-02-15T11:44:17;1.07;;;0.90;;
11173;SDS011;5643;50.856;12.088;2023-02-15T11:46:48;1.20;;;1.10;;
11173;SDS011;5643;50.856;12.088;2023-02-15T11:49:20;1.17;;;1.03;;
11173;SDS011;5643;50.856;12.088;2023-02-15T11:51:50;0.87;;;0.87;;
11173;SDS011;5643;50.856;12.088;2023-02-15T11:54:18;1.10;;;1.00;;
11173;SDS011;5643;50.856;12.088;2023-02-15T11:56:48;0.93;;;0.93;;
11173;SDS011;5643;50.856;12.088;2023-02-15T11:59:17;1.30;;;1.20;;
11173;SDS011;5643;50.856;12.088;2023-02-15T12:01:46;1.00;;;0.90;;
11173;SDS011;5643;50.856;12.088;2023-02-15T12:04:15;1.10;;;1.00;;
11173;SDS011;5643;50.856;12.088;2023-02-15T12:06:45;1.20;;;0.90;;
11173;SDS011;5643;50.856;12.088;2023-02-15T12:09:17;1.37;;;1.10;;
11173;SDS011;5643;50.856;12.088;2023-02-15T12:11:49;0.80;;;0.80;;
11173;SDS011;5643;50.856;12.088;2023-02-15T12:14:16;1.20;;;1.10;;
11173;SDS011;5643;50.856;12.088;2023-02-15T12:16:45;0.90;;;0.87;;
11173;SDS011;5643;50.856;12.088;2023-02-15T12:19:20;1.20;;;1.10;;
11173;SDS011;5643;50.856;12.088;2023-02-15T12:21:51;0.83;;;0.83;;
11173;SDS011;5643;50.856;12.088;2023-02-15T12:24:22;1.00;;;1.00;;
11173;SDS011;5643;50.856;12.088;2023-02-15T12:26:57;1.00;;;1.00;;
11173;SDS011;5643;50.856;12.088;2023-02-15T12:29:26;1.07;;;0.90;;
11173;SDS011;5643;50.856;12.088;2023-02-15T12:31:55;1.47;;;1.00;;
11173;SDS011;5643;50.856;12.088;2023-02-15T12:34:26;0.90;;;0.90;;
11173;SDS011;5643;50.856;12.088;2023-02-15T12:36:54;1.20;;;0.90;;
11173;SDS011;5643;50.856;12.088;2023-02-15T12:39:27;0.80;;;0.80;;
11173;SDS011;5643;50.856;12.088;2023-02-15T12:42:03;0.90;;;0.90;;
11173;SDS011;5643;50.856;12.088;2023-02-15T12:44:30;1.13;;;0.83;;
11173;SDS011;5643;50.856;12.088;2023-02-15T12:47:00;0.73;;;0.73;;
11173;SDS011;5643;50.856;12.088;2023-02-15T12:49:27;0.80;;;0.80;;
11173;SDS011;5643;50.856;12.088;2023-02-15T12:51:56;0.80;;;0.80;;
11173;SDS011;5643;50.856;12.088;2023-02-15T12:54:32;0.80;;;0.80;;
11173;SDS011;5643;50.856;12.088;2023-02-15T12:57:12;1.00;;;1.00;;
11173;SDS011;5643;50.856;12.088;2023-02-15T12:59:46;1.23;;;1.10;;
11173;SDS011;5643;50.856;12.088;2023-02-15T13:02:18;1.10;;;0.90;;
11173;SDS011;5643;50.856;12.088;2023-02-15T13:04:47;0.97;;;0.97;;
11173;SDS011;5643;50.856;12.088;2023-02-15T13:07:16;0.80;;;0.80;;
11173;SDS011;5643;50.856;12.088;2023-02-15T13:09:45;0.60;;;0.60;;
11173;SDS011;5643;50.856;12.088;2023-02-15T13:12:18;0.60;;;0.60;;
11173;SDS011;5643;50.856;12.088;2023-02-15T13:14:47;0.60;;;0.60;;
11173;SDS011;5643;50.856;12.088;2023-02-15T13:17:17;0.70;;;0.70;;
11173;SDS011;5643;50.856;12.088;2023-02-15T13:19:46;0.60;;;0.60;;
11173;SDS011;5643;50.856;12.088;2023-02-15T13:22:15;0.80;;;0.80;;
11173;SDS011;5643;50.856;12.088;2023-02-15T13:24:45;0.87;;;0.87;;
11173;SDS011;5643;50.856;12.088;2023-02-15T13:27:16;0.60;;;0.60;;
11173;SDS011;5643;50.856;12.088;2023-02-15T13:29:46;0.87;;;0.87;;
11173;SDS011;5643;50.856;12.088;2023-02-15T13:32:19;1.10;;;1.10;;
11173;SDS011;5643;50.856;12.088;2023-02-15T13:34:49;1.07;;;1.07;;
11173;SDS011;5643;50.856;12.088;2023-02-15T13:37:20;0.70;;;0.70;;
11173;SDS011;5643;50.856;12.088;2023-02-15T13:39:51;0.80;;;0.80;;
11173;SDS011;5643;50.856;12.088;2023-02-15T13:42:20;0.70;;;0.70;;
11173;SDS011;5643;50.856;12.088;2023-02-15T13:45:02;0.60;;;0.60;;
11173;SDS011;5643;50.856;12.088;2023-02-15T13:47:37;0.70;;;0.70;;
11173;SDS011;5643;50.856;12.088;2023-02-15T13:50:18;0.70;;;0.70;;
11173;SDS011;5643;50.856;12.088;2023-02-15T13:52:51;0.80;;;0.80;;
11173;SDS011;5643;50.856;12.088;2023-02-15T13:55:28;0.70;;;0.70;;
11173;SDS011;5643;50.856;12.088;2023-02-15T13:58:06;1.10;;;0.73;;
11173;SDS011;5643;50.856;12.088;2023-02-15T14:00:40;0.60;;;0.60;;
11173;SDS011;5643;50.856;12.088;2023-02-15T14:03:14;0.77;;;0.77;;
11173;SDS011;5643;50.856;12.088;2023-02-15T14:05:56;0.90;;;0.90;;
11173;SDS011;5643;50.856;12.088;2023-02-15T14:08:32;1.07;;;1.00;;
11173;SDS011;5643;50.856;12.088;2023-02-15T14:11:06;1.03;;;1.03;;
11173;SDS011;5643;50.856;12.088;2023-02-15T14:16:24;1.07;;;1.07;;
11173;SDS011;5643;50.856;12.088;2023-02-15T14:19:01;1.07;;;1.07;;
11173;SDS011;5643;50.856;12.088;2023-02-15T14:21:30;1.17;;;1.00;;
11173;SDS011;5643;50.856;12.088;2023-02-15T14:24:03;1.10;;;1.00;;
11173;SDS011;5643;50.856;12.088;2023-02-15T14:26:40;0.97;;;0.97;;
11173;SDS011;5643;50.856;12.088;2023-02-15T14:29:16;1.20;;;1.03;;
11173;SDS011;5643;50.856;12.088;2023-02-15T14:31:45;1.00;;;1.00;;
11173;SDS011;5643;50.856;12.088;2023-02-15T14:34:18;1.10;;;1.00;;
11173;SDS011;5643;50.856;12.088;2023-02-15T14:36:49;1.10;;;1.10;;
11173;SDS011;5643;50.856;12.088;2023-02-15T14:39:21;1.27;;;1.17;;
11173;SDS011;5643;50.856;12.088;2023-02-15T14:42:13;1.30;;;1.20;;
11173;SDS011;5643;50.856;12.088;2023-02-15T14:44:46;1.20;;;1.10;;
11173;SDS011;5643;50.856;12.088;2023-02-15T14:47:18;1.00;;;1.00;;
11173;SDS011;5643;50.856;12.088;2023-02-15T14:49:46;1.20;;;1.10;;
11173;SDS011;5643;50.856;12.088;2023-02-15T14:52:14;1.30;;;1.20;;
11173;SDS011;5643;50.856;12.088;2023-02-15T14:54:55;1.20;;;1.10;;
11173;SDS011;5643;50.856;12.088;2023-02-15T14:57:25;1.10;;;1.00;;
11173;SDS011;5643;50.856;12.088;2023-02-15T14:59:57;1.17;;;1.07;;
11173;SDS011;5643;50.856;12.088;2023-02-15T15:02:29;1.10;;;1.00;;
11173;SDS011;5643;50.856;12.088;2023-02-15T15:04:59;1.30;;;1.20;;
11173;SDS011;5643;50.856;12.088;2023-02-15T15:07:27;1.30;;;1.10;;
11173;SDS011;5643;50.856;12.088;2023-02-15T15:10:00;1.50;;;1.40;;
11173;SDS011;5643;50.856;12.088;2023-02-15T15:12:43;1.30;;;1.20;;
11173;SDS011;5643;50.856;12.088;2023-02-15T15:15:12;1.30;;;1.20;;
11173;SDS011;5643;50.856;12.088;2023-02-15T15:17:59;1.20;;;1.10;;
11173;SDS011;5643;50.856;12.088;2023-02-15T15:23:40;1.70;;;1.60;;
11173;SDS011;5643;50.856;12.088;2023-02-15T15:26:21;1.53;;;1.43;;